UPDATE: JCWeather will be closing Oct 1st 2021 after 20 years,
The cost of weather instruments and lack of time and finances to keep it up to date.
To my thousands of followers thank you for your time and loyalty over the years.
Questions or comments can be directed to jc@jcweather.com
Current Conditions (Updated 10:50pm on 9/22/21)
Temperature
 76°
-0.59
87°  
72°  
0
10
20
30
40
50
60
70
80
90
100
Dew Point
67°
70°  
63°  
-20
-10
0
10
20
30
40
50
60
70
80
Heat Index
80°
88°  
77°  
30
40
50
60
70
80
90
100
110
120
130
Heat Index
Humidity
75%
89% 
46% 
0
10
20
30
40
50
60
70
80
90
100
Barometer
29.96
   Steady
30.22  
29.96  
28.00
28.30
28.60
28.90
29.20
29.50
29.80
30.10
30.40
30.70
31.00
Temperature
Dew Point
Humidity
Pressure
Wind
6mph
 SE
Daily Rain
.00
.05
.10
.15
.20
.25
.30
.35
.40
.45
.50
Rain Today
 0.00" 
Month Rain
0.00
0.50
1.00
1.50
2.00
2.50
3.00
3.50
4.00
4.50
5.00
Month Rain
 4.55" 
Year Rain
0.00
1.00
2.00
3.00
4.00
5.00
6.00
7.00
8.00
9.00
10.00
Year Rain
 5.54" 
Sun & Moon Data
Sunrise 6:50am
Sunset 6:59pm
Moonrise 8:05pm
Moonset 8:15am
Moon % 98%
Other Rain Data
Past Hour 0.00 Past 24 Hours 0.00
Past 3 Hours 0.00 Past 7 Days 0.16
Past 6 Hours 0.00
Cloud Height
2122


7 Day Forecast
NWS Forecast for Philadelphia PA
National Weather Service Forecast for: Philadelphia PA
Issued by: National Weather Service Philadelphia, PA
Updated: 10:14 pm EDT Sep 22, 2021

Philadelphia PA.
 
Tonight

Tonight: A slight chance of showers.  Cloudy, with a low around 71. Southeast wind around 10 mph.  Chance of precipitation is 20%.
Slight Chance
Showers
Thursday

Thursday: A chance of showers and thunderstorms, then showers and possibly a thunderstorm after 9am. Some of the storms could produce heavy rain.  High near 78. Southeast wind 10 to 15 mph, with gusts as high as 30 mph.  Chance of precipitation is 90%. New rainfall amounts between a half and three quarters of an inch possible.
Heavy Rain

Thursday
Night
Thursday Night: Showers and possibly a thunderstorm before 2am, then showers likely. Some of the storms could produce gusty winds and heavy rain.  Low around 60. Southwest wind around 5 mph.  Chance of precipitation is 90%. New rainfall amounts between a half and three quarters of an inch possible.
Heavy Rain

Friday

Friday: Showers likely before 8am.  Sunny, with a high near 73. West wind around 5 mph.  Chance of precipitation is 60%. New precipitation amounts of less than a tenth of an inch possible.
Showers
Likely then
Sunny
Friday
Night
Friday Night: Mostly clear, with a low around 56. Northwest wind around 5 mph.
Mostly Clear

Saturday

Saturday: Sunny, with a high near 74.
Sunny

Saturday
Night
Saturday Night: Partly cloudy, with a low around 58.
Partly Cloudy

Sunday

Sunday: Sunny, with a high near 73.
Sunny

Sunday
Night
Sunday Night: Mostly clear, with a low around 57.
Mostly Clear

Lo 71 °F Hi 78 °F Lo 60 °F Hi 73 °F Lo 56 °F Hi 74 °F Lo 58 °F Hi 73 °F Lo 57 °F

Hazardous Weather Outlook
Flash Flood Watch
 

Tonight
 
A slight chance of showers. Cloudy, with a low around 71. Southeast wind around 10 mph. Chance of precipitation is 20%.
Thursday
 
A chance of showers and thunderstorms, then showers and possibly a thunderstorm after 9am. Some of the storms could produce heavy rain. High near 78. Southeast wind 10 to 15 mph, with gusts as high as 30 mph. Chance of precipitation is 90%. New rainfall amounts between a half and three quarters of an inch possible.
Thursday Night
 
Showers and possibly a thunderstorm before 2am, then showers likely. Some of the storms could produce gusty winds and heavy rain. Low around 60. Southwest wind around 5 mph. Chance of precipitation is 90%. New rainfall amounts between a half and three quarters of an inch possible.
Friday
 
Showers likely before 8am. Sunny, with a high near 73. West wind around 5 mph. Chance of precipitation is 60%. New precipitation amounts of less than a tenth of an inch possible.
Friday Night
 
Mostly clear, with a low around 56. Northwest wind around 5 mph.
Saturday
 
Sunny, with a high near 74.
Saturday Night
 
Partly cloudy, with a low around 58.
Sunday
 
Sunny, with a high near 73.
Sunday Night
 
Mostly clear, with a low around 57.
Monday
 
Sunny, with a high near 76.
Monday Night
 
Partly cloudy, with a low around 59.
Tuesday
 
Mostly sunny, with a high near 77.
Tuesday Night
 
Partly cloudy, with a low around 58.
Wednesday
 
Sunny, with a high near 73.

 

Forecast from NOAA-NWS for Philadelphia PA.

Current Front Map
Current Radar
Area Weather Current Conditions
Nearby METAR Reports

KPHL - Philadelphia, Pennsylvania
Updated: Wed, 22-Sep-2021 9:54pm EDT
Mostly Cloudy
Mostly Cloudy
 Wind from ESE
Wind: ESE 10 mph , 17 km/h
Temperature: 73°F , 23°C
Dew Point: 70°F , 21°C
Humidity: 89%
Barometer: 29.94 inHg , 1013.9 hPa
Clouds: Mostly Cloudy
Visibility: 10 miles , 16 km
Cloud details: Few Clouds 3000 ft
Mostly Cloudy 25000 ft
2021/09/23 01:54 KPHL 230154Z 12009KT 10SM FEW030 BKN250 23/21 A2994 RMK AO2 SLP139 T02330206 $
KMPO - Mt. Pocono, Pennsylvania
Updated: Wed, 22-Sep-2021 10:36pm EDT
Overcast
Overcast
 Wind from SE
Wind: SE 16 mph , 26 km/h, Gust: 28 mph , 44 km/h
Temperature: 66°F , 19°C
Dew Point: 64°F , 18°C
Humidity: 94%
Barometer: 29.99 inHg , 1015.6 hPa
Clouds: Overcast
Visibility: 10 miles , 16 km
Cloud details: Mostly Cloudy 1100 ft
Mostly Cloudy 1600 ft
Overcast 2100 ft
2021/09/23 02:36 KMPO 230236Z AUTO 13014G24KT 10SM BKN011 BKN016 OVC021 19/18 A2999 RMK AO2 T01940178
 
KACY - Atlantic City, New Jersey
Updated: Wed, 22-Sep-2021 9:54pm EDT
Clear
Clear
 Wind from SSE
Wind: SSE 14 mph , 22 km/h, Gust: 24 mph , 39 km/h
Temperature: 75°F , 24°C
Dew Point: 72°F , 22°C
Humidity: 89%
Barometer: 29.97 inHg , 1014.9 hPa
Clouds: Clear
Visibility: 10 miles , 16 km
2021/09/23 01:54 KACY 230154Z 15012G21KT 10SM CLR 24/22 A2997 RMK AO2 SLP147 T02440217
KMIV - Millville, New Jersey
Updated: Wed, 22-Sep-2021 9:54pm EDT
Clear
Clear
 Wind from SE
Wind: SE 13 mph , 20 km/h
Temperature: 75°F , 24°C
Dew Point: 70°F , 21°C
Humidity: 83%
Barometer: 29.94 inHg , 1013.9 hPa
Clouds: Clear
Visibility: 10 miles , 16 km
2021/09/23 01:54 KMIV 230154Z AUTO 14011KT 10SM CLR 24/21 A2994 RMK AO2 SLP138 T02390211
 
KWWD - Wildwood, New Jersey
Updated: Wed, 22-Sep-2021 9:56pm EDT
Clear
Clear
 Wind from SE
Wind: SE 15 mph , 24 km/h
Temperature: 75°F , 24°C
Dew Point: 72°F , 22°C
Humidity: 89%
Barometer: 29.95 inHg , 1014.2 hPa
Clouds: Clear
Visibility: 10 miles , 16 km
2021/09/23 01:56 KWWD 230156Z AUTO 14013KT 10SM CLR 24/22 A2995 RMK AO2 SLP144 T02390222 $
KDOV - Dover Afb, Delaware
Updated: Wed, 22-Sep-2021 9:56pm EDT
Clear
Clear
 Wind from SE
Wind: SE 12 mph , 19 km/h
Temperature: 75°F , 24°C
Dew Point: 72°F , 22°C
Humidity: 89%
Barometer: 29.91 inHg , 1012.9 hPa
Clouds: Clear
Visibility: 10 miles , 16 km
2021/09/23 01:56 KDOV 230156Z AUTO 14010KT 10SM CLR 24/22 A2991 RMK AO2 SLP132 T02360217 $
Severe Weather Map